^^
Saratoga-Weather Station Historical Data
 
Daily Summary for April 07, 2020 Units:  English    Metric   Both
Daily Weekly Monthly Yearly Custom
  Current: High: Low: Average:
Temperature: 46.9 °F 50 °F 46.9 °F 48.8 °F
Dew Point: 24.1 °F 26 °F 21.9 °F 23 °F
Humidity: 40.5% 42.4% 33.8% 36%
Wind Speed: 0mph 4.3mph 0mph 1.3mph
Wind Gust: 0mph 12mph - -
WindCalm - - WNW
Pressure: 29.86 in 29.88 in 29.85 in -
Precipitation: 0.00 in      
Historical Graphs
 
 
Tabular Data for April 07, 2020
Time Temperature Dew Point Pressure Wind Wind Speed Wind Gust Humidity Rainfall Rate (Hourly) solar
00:04 50 °F 23.7 °F 29.87 in West 0.3 mph 1.2 mph 35.5% 0.00 in 0 W/m2
00:09 49.8 °F 24 °F 29.87 in West 0.7 mph 2.3 mph 36.2% 0.00 in 0 W/m2
00:14 49.6 °F 24.1 °F 29.87 in West 1.2 mph 6 mph 36.6% 0.00 in 0 W/m2
00:19 49.4 °F 23.5 °F 29.88 in West 1 mph 4 mph 36.1% 0.00 in 0 W/m2
00:24 49.2 °F 22.5 °F 29.88 in WNW 2.6 mph 5 mph 34.7% 0.00 in 0 W/m2
00:29 49.2 °F 22.7 °F 29.88 in West 1.8 mph 4 mph 35% 0.00 in 0 W/m2
00:34 49.1 °F 22.9 °F 29.88 in WNW 2.3 mph 10 mph 35.4% 0.00 in 0 W/m2
00:39 49.1 °F 22.6 °F 29.88 in WNW 4.3 mph 11.5 mph 35% 0.00 in 0 W/m2
00:44 49.2 °F 22.3 °F 29.88 in WNW 3.1 mph 9 mph 34.5% 0.00 in 0 W/m2
00:49 49.3 °F 22.6 °F 29.88 in WNW 3.1 mph 9.2 mph 34.6% 0.00 in 0 W/m2
00:54 49.4 °F 22.8 °F 29.87 in WNW 2.5 mph 8.1 mph 34.8% 0.00 in 0 W/m2
00:59 49.4 °F 22.5 °F 29.88 in WNW 2.5 mph 12 mph 34.5% 0.00 in 0 W/m2
01:04 49.4 °F 22.8 °F 29.88 in WNW 3.1 mph 7 mph 34.8% 0.00 in 0 W/m2
01:09 49.4 °F 22.3 °F 29.88 in NW 2.6 mph 6 mph 34.1% 0.00 in 0 W/m2
01:14 49.4 °F 22.6 °F 29.88 in NW 3.2 mph 11.5 mph 34.6% 0.00 in 0 W/m2
01:19 49.4 °F 22.4 °F 29.88 in WNW 2.5 mph 7 mph 34.3% 0.00 in 0 W/m2
01:24 49.4 °F 22.3 °F 29.88 in NW 1.8 mph 5 mph 34.2% 0.00 in 0 W/m2
01:29 49.4 °F 22.5 °F 29.88 in NW 2.7 mph 8.1 mph 34.4% 0.00 in 0 W/m2
01:34 49.4 °F 22.1 °F 29.87 in NW 2.4 mph 7 mph 33.8% 0.00 in 0 W/m2
01:39 49.4 °F 22.3 °F 29.87 in NNW 2 mph 4 mph 34.2% 0.00 in 0 W/m2
01:44 49.3 °F 22.2 °F 29.87 in NW 1.6 mph 5 mph 34.1% 0.00 in 0 W/m2
01:49 49.3 °F 22.8 °F 29.87 in North 1 mph 4.6 mph 35.1% 0.00 in 0 W/m2
01:54 49.2 °F 22.6 °F 29.87 in WNW 1.2 mph 3.5 mph 34.8% 0.00 in 0 W/m2
01:59 49.1 °F 22.6 °F 29.87 in NW 1.6 mph 3.5 mph 35% 0.00 in 0 W/m2
02:04 49.1 °F 22.6 °F 29.87 in WNW 1.6 mph 6 mph 35% 0.00 in 0 W/m2
02:09 49.1 °F 22.8 °F 29.87 in WNW 0.9 mph 2.3 mph 35.3% 0.00 in 0 W/m2
02:14 49 °F 23 °F 29.87 in WNW 0.6 mph 3.5 mph 35.8% 0.00 in 0 W/m2
02:19 49 °F 22.5 °F 29.87 in West 0.7 mph 3.5 mph 35.1% 0.00 in 0 W/m2
02:24 48.9 °F 22.8 °F 29.87 in NW 0.9 mph 2.3 mph 35.7% 0.00 in 0 W/m2
02:29 48.8 °F 21.9 °F 29.87 in NNW 0.6 mph 4 mph 34.5% 0.00 in 0 W/m2
02:34 48.8 °F 22.5 °F 29.86 in WNW 0.7 mph 3.5 mph 35.3% 0.00 in 0 W/m2
02:39 48.8 °F 23.3 °F 29.86 in WNW 0.1 mph 2.3 mph 36.5% 0.00 in 0 W/m2
02:44 48.7 °F 22.7 °F 29.86 in North 0.3 mph 2.3 mph 35.7% 0.00 in 0 W/m2
02:49 48.6 °F 22.2 °F 29.86 in North 0.3 mph 2.3 mph 35.2% 0.00 in 0 W/m2
02:54 48.6 °F 22.5 °F 29.87 in NW 1.1 mph 4 mph 35.5% 0.00 in 0 W/m2
02:59 48.6 °F 22.3 °F 29.87 in NW 1.2 mph 4 mph 35.4% 0.00 in 0 W/m2
03:04 48.6 °F 22.4 °F 29.86 in NW 0.9 mph 4 mph 35.4% 0.00 in 0 W/m2
03:09 48.6 °F 22.5 °F 29.86 in NW 1.8 mph 4 mph 35.6% 0.00 in 0 W/m2
03:14 48.7 °F 22.2 °F 29.86 in WNW 1.5 mph 3.5 mph 35% 0.00 in 0 W/m2
03:19 48.7 °F 22.3 °F 29.86 in NW 1.9 mph 3.5 mph 35.1% 0.00 in 0 W/m2
03:24 48.7 °F 22.3 °F 29.86 in NW 1.7 mph 4 mph 35.2% 0.00 in 0 W/m2
03:29 48.7 °F 22.3 °F 29.86 in NW 1.4 mph 3.5 mph 35.2% 0.00 in 0 W/m2
03:34 48.6 °F 22.4 °F 29.86 in WNW 2 mph 7 mph 35.5% 0.00 in 0 W/m2
03:39 48.6 °F 22.8 °F 29.86 in NW 1.6 mph 4 mph 36% 0.00 in 0 W/m2
03:44 48.6 °F 22.2 °F 29.86 in WNW 1.4 mph 4 mph 35.1% 0.00 in 0 W/m2
03:49 48.6 °F 22.3 °F 29.86 in West 1 mph 3.5 mph 35.3% 0.00 in 0 W/m2
03:54 48.5 °F 22.9 °F 29.87 in West 1.1 mph 3.5 mph 36.2% 0.00 in 0 W/m2
03:59 48.5 °F 22.9 °F 29.87 in West 0.7 mph 2.3 mph 36.4% 0.00 in 0 W/m2
04:04 48.4 °F 22.9 °F 29.86 in West 0.7 mph 2.3 mph 36.5% 0.00 in 0 W/m2
04:09 48.4 °F 22.6 °F 29.86 in West 0.1 mph 2.3 mph 36.1% 0.00 in 0 W/m2
04:14 48.4 °F 23.3 °F 29.86 in West 0.1 mph 1.2 mph 37% 0.00 in 0 W/m2
04:19 48.3 °F 22.7 °F 29.86 in Calm     36.3% 0.00 in 0 W/m2
04:24 48.3 °F 24 °F 29.86 in Calm     38.3% 0.00 in 0 W/m2
04:29 48.2 °F 24.6 °F 29.86 in Calm     39.3% 0.00 in 0 W/m2
04:34 48.1 °F 24.4 °F 29.86 in Calm   1.2 mph 39.1% 0.00 in 0 W/m2
04:39 48 °F 25.3 °F 29.86 in West 0.1 mph 1.2 mph 40.7% 0.00 in 0 W/m2
04:44 47.8 °F 26 °F 29.85 in West 0.1 mph 1.2 mph 42.4% 0.00 in 0 W/m2
04:49 47.6 °F 24.6 °F 29.85 in Calm     40.3% 0.00 in 0 W/m2
04:54 47.4 °F 24.8 °F 29.86 in West 0.1 mph 1.2 mph 41% 0.00 in 0 W/m2
04:59 47.3 °F 25.2 °F 29.86 in West 0.2 mph 1.2 mph 41.7% 0.00 in 0 W/m2
05:04 47.1 °F 25 °F 29.86 in Calm     41.7% 0.00 in 0 W/m2
05:09 46.9 °F 24.1 °F 29.86 in Calm     40.5% 0.00 in 0 W/m2
Miami Avenue - Newington, Connecticut, USA
Compliments of Weather Underground - 4 mb